Time;durP1;ratioP1;P1;durP2;ratioP2;P2;SDS_P1;SDS_P2;PMS_P1;PMS_P2;Temp;Humidity;BMP_temperature;BMP_pressure;BME280_temperature;BME280_humidity;BME280_pressure;Samples;Min_cycle;Max_cycle;Signal;HPM_P1;HPM_P2
2022/03/14 00:00:53;;;;;;;;;;;22.10;31.00;;;;;;5050958;28;19991;-59
2022/03/14 00:03:20;;;;;;;;;;;22.10;31.00;;;;;;5035489;28;19920;-60
2022/03/14 00:05:46;;;;;;;;;;;22.10;31.00;;;;;;5039016;28;19965;-58
2022/03/14 00:08:13;;;;;;;;;;;22.10;31.00;;;;;;5040796;28;20000;-60
2022/03/14 00:10:39;;;;;;;;;;;22.10;31.00;;;;;;5048951;28;19908;-60
2022/03/14 00:13:07;;;;;;;;;;;22.10;31.00;;;;;;5040975;28;19909;-59
2022/03/14 00:15:33;;;;;;;;;;;22.10;31.00;;;;;;5044671;28;20688;-60
2022/03/14 00:18:01;;;;;;;;;;;22.10;31.00;;;;;;5047974;28;19935;-59
2022/03/14 00:20:27;;;;;;;;;;;22.10;31.70;;;;;;5028424;28;19920;-59
2022/03/14 00:22:53;;;;;;;;;;;22.10;31.10;;;;;;5050087;28;19909;-59
2022/03/14 00:25:19;;;;;;;;;;;22.10;31.10;;;;;;5045283;28;19909;-58
2022/03/14 00:27:45;;;;;;;;;;;22.10;31.10;;;;;;5052421;28;19925;-58
2022/03/14 00:30:11;;;;;;;;;;;22.10;31.10;;;;;;5039662;28;19991;-57
2022/03/14 00:32:37;;;;;;;;;;;22.10;31.10;;;;;;5055783;28;20316;-60
2022/03/14 00:35:04;;;;;;;;;;;22.10;31.10;;;;;;5057597;28;19948;-61
2022/03/14 00:37:30;;;;;;;;;;;22.10;31.10;;;;;;5055485;28;19983;-60
2022/03/14 00:39:55;;;;;;;;;;;22.10;31.20;;;;;;5050495;28;19916;-59
2022/03/14 00:42:21;;;;;;;;;;;22.10;31.20;;;;;;5039335;28;19909;-58
2022/03/14 00:44:47;;;;;;;;;;;22.00;31.10;;;;;;5055416;28;19932;-60
2022/03/14 00:47:14;;;;;;;;;;;22.10;31.20;;;;;;5056570;28;19959;-60
2022/03/14 00:49:39;;;;;;;;;;;22.10;31.20;;;;;;5057145;28;19935;-62
2022/03/14 00:52:05;;;;;;;;;;;22.00;31.10;;;;;;5055425;28;19909;-59
2022/03/14 00:54:31;;;;;;;;;;;22.00;31.20;;;;;;5056815;28;19971;-58
2022/03/14 00:56:57;;;;;;;;;;;22.00;31.20;;;;;;5047017;28;19909;-60
2022/03/14 00:59:24;;;;;;;;;;;22.00;31.20;;;;;;5057125;28;19917;-60
2022/03/14 01:01:50;;;;;;;;;;;22.00;31.20;;;;;;5055974;28;20231;-57
2022/03/14 01:04:16;;;;;;;;;;;22.00;31.20;;;;;;5054608;28;19913;-58
2022/03/14 01:06:42;;;;;;;;;;;22.00;31.30;;;;;;5039939;28;20228;-60
2022/03/14 01:09:11;;;;;;;;;;;22.00;31.30;;;;;;5055953;28;19967;-58
2022/03/14 01:11:37;;;;;;;;;;;22.00;31.30;;;;;;5039217;28;19931;-59
2022/03/14 01:14:03;;;;;;;;;;;22.00;31.30;;;;;;5048383;28;20307;-61
2022/03/14 01:16:29;;;;;;;;;;;22.00;31.30;;;;;;5040603;28;20411;-60
2022/03/14 01:18:55;;;;;;;;;;;22.00;31.40;;;;;;5055848;28;19905;-60
2022/03/14 01:21:21;;;;;;;;;;;22.00;31.40;;;;;;5052925;28;19921;-61
2022/03/14 01:23:47;;;;;;;;;;;22.00;31.40;;;;;;5036559;28;19928;-61
2022/03/14 01:26:13;;;;;;;;;;;22.00;31.50;;;;;;5041327;28;19909;-61
2022/03/14 01:28:40;;;;;;;;;;;22.00;31.50;;;;;;5041008;28;19924;-60
2022/03/14 01:31:06;;;;;;;;;;;22.00;31.50;;;;;;5037864;28;20235;-61
2022/03/14 01:33:31;;;;;;;;;;;22.00;31.50;;;;;;5049912;28;19952;-61
2022/03/14 01:35:57;;;;;;;;;;;21.90;31.40;;;;;;5054982;28;19928;-61
2022/03/14 01:38:23;;;;;;;;;;;22.00;31.50;;;;;;5040869;28;19913;-60
2022/03/14 01:40:48;;;;;;;;;;;22.00;31.50;;;;;;5055728;28;20193;-62
2022/03/14 01:43:16;;;;;;;;;;;21.90;31.50;;;;;;5053861;28;20351;-60
2022/03/14 01:45:44;;;;;;;;;;;21.90;31.50;;;;;;5056855;28;19912;-60
2022/03/14 01:48:11;;;;;;;;;;;21.90;31.50;;;;;;5054226;28;20243;-62
2022/03/14 01:50:37;;;;;;;;;;;21.90;31.50;;;;;;5056162;28;19919;-60
2022/03/14 01:53:02;;;;;;;;;;;21.90;31.50;;;;;;5041687;28;20231;-60
2022/03/14 01:55:28;;;;;;;;;;;21.90;31.50;;;;;;5055587;28;19917;-60
2022/03/14 01:57:55;;;;;;;;;;;21.90;31.50;;;;;;5052937;28;19948;-60
2022/03/14 02:00:21;;;;;;;;;;;21.90;31.60;;;;;;5045422;28;20247;-60
2022/03/14 02:02:48;;;;;;;;;;;21.90;31.60;;;;;;5054905;28;19919;-61
2022/03/14 02:05:15;;;;;;;;;;;21.90;31.60;;;;;;5046135;28;20189;-62
2022/03/14 02:07:40;;;;;;;;;;;21.90;31.60;;;;;;5042688;28;19908;-61
2022/03/14 02:10:07;;;;;;;;;;;21.90;31.60;;;;;;5054011;28;19966;-58
2022/03/14 02:12:32;;;;;;;;;;;21.90;31.60;;;;;;5055310;28;19929;-59
2022/03/14 02:14:58;;;;;;;;;;;21.90;31.60;;;;;;5047012;28;19921;-62
2022/03/14 02:17:24;;;;;;;;;;;21.90;31.60;;;;;;5050545;28;19909;-61
2022/03/14 02:19:52;;;;;;;;;;;21.90;31.70;;;;;;5052877;28;19909;-60
2022/03/14 02:22:18;;;;;;;;;;;21.90;31.70;;;;;;5055068;28;19909;-60
2022/03/14 02:24:45;;;;;;;;;;;21.90;31.70;;;;;;5050159;28;19920;-62
2022/03/14 02:27:11;;;;;;;;;;;21.90;31.70;;;;;;5054714;28;20367;-58
2022/03/14 02:29:37;;;;;;;;;;;21.90;31.70;;;;;;5053683;28;19944;-60
2022/03/14 02:32:03;;;;;;;;;;;21.80;31.70;;;;;;5042782;28;19912;-61
2022/03/14 02:34:29;;;;;;;;;;;21.90;31.80;;;;;;5044949;28;19982;-62
2022/03/14 02:36:54;;;;;;;;;;;21.90;31.80;;;;;;5054626;28;19909;-61
2022/03/14 02:39:20;;;;;;;;;;;21.90;31.80;;;;;;5052828;28;19935;-61
2022/03/14 02:41:46;;;;;;;;;;;21.80;31.80;;;;;;5047546;28;19970;-60
2022/03/14 02:44:11;;;;;;;;;;;21.80;31.80;;;;;;5042708;28;20319;-59
2022/03/14 02:46:40;;;;;;;;;;;21.80;31.80;;;;;;5051024;28;19948;-62
2022/03/14 02:49:06;;;;;;;;;;;21.80;31.80;;;;;;5053395;28;19919;-60
2022/03/14 02:51:34;;;;;;;;;;;21.80;31.80;;;;;;5055481;28;19909;-58
2022/03/14 02:54:01;;;;;;;;;;;21.80;31.80;;;;;;5054802;28;19913;-58
2022/03/14 02:56:27;;;;;;;;;;;21.80;31.90;;;;;;5054796;28;19913;-62
2022/03/14 02:58:53;;;;;;;;;;;21.80;31.90;;;;;;5054514;28;19908;-61
2022/03/14 03:01:19;;;;;;;;;;;21.80;31.90;;;;;;5051123;28;19912;-60
2022/03/14 03:03:45;;;;;;;;;;;21.80;31.90;;;;;;5055308;28;19920;-60
2022/03/14 03:06:13;;;;;;;;;;;21.80;32.00;;;;;;5049580;28;20368;-60
2022/03/14 03:08:43;;;;;;;;;;;21.80;32.00;;;;;;5054954;28;19924;-60
2022/03/14 03:11:12;;;;;;;;;;;21.80;32.00;;;;;;5045182;28;19909;-61
2022/03/14 03:13:42;;;;;;;;;;;21.80;32.00;;;;;;5040734;28;20311;-61
2022/03/14 03:16:09;;;;;;;;;;;21.80;32.10;;;;;;5050169;28;20398;-61
2022/03/14 03:18:35;;;;;;;;;;;21.80;32.10;;;;;;5054231;28;19908;-60
2022/03/14 03:21:00;;;;;;;;;;;21.70;32.10;;;;;;5036813;28;19971;-61
2022/03/14 03:23:26;;;;;;;;;;;21.80;32.20;;;;;;5025729;28;19920;-61
2022/03/14 03:25:52;;;;;;;;;;;21.80;32.20;;;;;;5045145;28;20240;-58
2022/03/14 03:28:20;;;;;;;;;;;21.80;32.30;;;;;;5040015;28;19909;-61
2022/03/14 03:30:46;;;;;;;;;;;21.80;32.40;;;;;;5055811;28;19920;-60
2022/03/14 03:33:12;;;;;;;;;;;21.70;32.40;;;;;;5048003;28;19909;-61
2022/03/14 03:35:38;;;;;;;;;;;21.70;32.40;;;;;;5039237;28;19928;-59
2022/03/14 03:38:03;;;;;;;;;;;21.70;32.50;;;;;;5053968;28;20046;-59
2022/03/14 03:40:29;;;;;;;;;;;21.80;32.60;;;;;;5056757;28;20134;-62
2022/03/14 03:42:55;;;;;;;;;;;21.70;32.50;;;;;;5057001;28;19921;-60
2022/03/14 03:45:20;;;;;;;;;;;21.70;32.50;;;;;;5058230;28;19909;-61
2022/03/14 03:47:46;;;;;;;;;;;21.70;32.50;;;;;;5045824;28;19968;-61
2022/03/14 03:50:12;;;;;;;;;;;21.70;32.50;;;;;;5057720;28;20319;-61
2022/03/14 03:52:37;;;;;;;;;;;21.70;32.60;;;;;;5051854;28;19909;-61
2022/03/14 03:55:04;;;;;;;;;;;21.70;32.90;;;;;;5058223;28;20342;-61
2022/03/14 03:57:30;;;;;;;;;;;21.70;32.70;;;;;;5052644;28;20289;-61
2022/03/14 03:59:56;;;;;;;;;;;21.70;32.70;;;;;;5058234;28;19920;-59
2022/03/14 04:02:22;;;;;;;;;;;21.70;32.70;;;;;;5042362;28;19963;-61
2022/03/14 04:04:48;;;;;;;;;;;21.70;32.80;;;;;;5039489;28;19955;-60
2022/03/14 04:07:16;;;;;;;;;;;21.70;32.80;;;;;;5043108;28;19908;-61
2022/03/14 04:09:42;;;;;;;;;;;21.70;32.80;;;;;;5038078;28;19952;-58
2022/03/14 04:12:07;;;;;;;;;;;21.70;32.90;;;;;;5052463;28;19959;-62
2022/03/14 04:14:33;;;;;;;;;;;21.70;32.90;;;;;;5042014;28;19917;-59
2022/03/14 04:17:02;;;;;;;;;;;21.70;32.90;;;;;;5032686;28;19913;-58
2022/03/14 04:19:29;;;;;;;;;;;21.70;32.90;;;;;;5058085;28;19920;-62
2022/03/14 04:21:55;;;;;;;;;;;21.70;32.90;;;;;;5039099;28;19912;-61
2022/03/14 04:24:21;;;;;;;;;;;21.70;33.00;;;;;;5058198;28;20270;-61
2022/03/14 04:26:47;;;;;;;;;;;21.70;33.00;;;;;;5056199;28;19919;-58
2022/03/14 04:29:14;;;;;;;;;;;21.70;33.00;;;;;;5057372;28;19916;-60
2022/03/14 04:31:39;;;;;;;;;;;21.70;33.70;;;;;;5056311;28;19913;-62
2022/03/14 04:34:05;;;;;;;;;;;21.60;33.00;;;;;;5041175;28;19909;-61
2022/03/14 04:36:31;;;;;;;;;;;21.70;33.10;;;;;;5053355;28;19978;-61
2022/03/14 04:38:56;;;;;;;;;;;21.70;33.10;;;;;;5045316;28;20336;-61
2022/03/14 04:41:22;;;;;;;;;;;21.70;33.20;;;;;;5056398;28;20296;-59
2022/03/14 04:43:48;;;;;;;;;;;21.70;33.20;;;;;;5056231;28;19909;-60
2022/03/14 04:46:14;;;;;;;;;;;21.60;33.10;;;;;;5043702;28;19909;-60
2022/03/14 04:48:39;;;;;;;;;;;21.60;33.20;;;;;;5039082;28;20316;-59
2022/03/14 04:51:05;;;;;;;;;;;21.60;33.20;;;;;;5048955;28;19920;-61
2022/03/14 04:53:31;;;;;;;;;;;21.60;33.20;;;;;;5055300;28;19908;-62
2022/03/14 04:55:57;;;;;;;;;;;21.60;33.20;;;;;;5056391;28;19973;-62
2022/03/14 04:58:23;;;;;;;;;;;21.60;33.30;;;;;;5056637;28;19917;-61
2022/03/14 05:00:48;;;;;;;;;;;21.60;33.90;;;;;;5052093;28;19909;-61
2022/03/14 05:03:14;;;;;;;;;;;21.60;33.30;;;;;;5052956;28;20005;-60
2022/03/14 05:05:40;;;;;;;;;;;21.60;33.30;;;;;;5057586;28;19923;-61
2022/03/14 05:08:06;;;;;;;;;;;21.60;33.40;;;;;;5055653;28;20239;-59
2022/03/14 05:10:31;;;;;;;;;;;21.60;33.40;;;;;;5055590;28;19908;-59
2022/03/14 05:12:58;;;;;;;;;;;21.60;33.40;;;;;;5051925;28;20332;-57
2022/03/14 05:15:23;;;;;;;;;;;21.60;33.40;;;;;;5055805;28;19916;-60
2022/03/14 05:17:49;;;;;;;;;;;21.60;33.40;;;;;;5056378;28;20026;-60
2022/03/14 05:20:15;;;;;;;;;;;21.60;33.40;;;;;;5036629;28;19919;-62
2022/03/14 05:22:45;;;;;;;;;;;21.60;33.50;;;;;;5055518;28;20003;-60
2022/03/14 05:25:11;;;;;;;;;;;21.60;33.50;;;;;;5055757;28;20331;-58
2022/03/14 05:27:38;;;;;;;;;;;21.60;33.50;;;;;;5055087;28;19973;-59
2022/03/14 05:30:04;;;;;;;;;;;21.60;33.50;;;;;;5055634;28;19921;-58
2022/03/14 05:32:30;;;;;;;;;;;21.60;33.50;;;;;;5052093;28;20297;-61
2022/03/14 05:34:56;;;;;;;;;;;21.50;33.50;;;;;;5037949;28;19964;-61
2022/03/14 05:37:21;;;;;;;;;;;21.60;33.60;;;;;;5056396;28;19912;-59
2022/03/14 05:39:49;;;;;;;;;;;21.60;33.60;;;;;;5043455;28;19909;-61
2022/03/14 05:42:15;;;;;;;;;;;21.60;33.60;;;;;;5056482;28;20235;-57
2022/03/14 05:44:42;;;;;;;;;;;21.60;33.60;;;;;;5055017;28;19904;-61
2022/03/14 05:47:08;;;;;;;;;;;21.60;33.60;;;;;;5055090;28;19974;-61
2022/03/14 05:49:34;;;;;;;;;;;21.60;33.60;;;;;;5049087;28;19992;-60
2022/03/14 05:51:59;;;;;;;;;;;21.70;33.60;;;;;;5056061;28;19924;-61
2022/03/14 05:54:25;;;;;;;;;;;21.70;33.60;;;;;;5053276;28;20336;-61
2022/03/14 05:56:51;;;;;;;;;;;21.70;33.60;;;;;;5055379;28;20003;-60
2022/03/14 05:59:17;;;;;;;;;;;21.70;33.60;;;;;;5052942;28;19919;-58
2022/03/14 06:01:44;;;;;;;;;;;21.70;33.70;;;;;;5051806;28;19951;-60
2022/03/14 06:04:10;;;;;;;;;;;21.70;33.70;;;;;;5054834;28;20387;-61
2022/03/14 06:06:35;;;;;;;;;;;21.70;33.70;;;;;;5055327;28;20004;-61
2022/03/14 06:09:01;;;;;;;;;;;21.70;33.70;;;;;;5055283;28;19952;-60
2022/03/14 06:11:27;;;;;;;;;;;21.70;33.70;;;;;;5046429;28;19962;-61
2022/03/14 06:13:53;;;;;;;;;;;21.70;33.70;;;;;;5055296;28;19931;-58
2022/03/14 06:16:18;;;;;;;;;;;21.80;33.90;;;;;;5040501;28;20297;-61
2022/03/14 06:18:44;;;;;;;;;;;21.80;33.80;;;;;;5041938;28;19908;-59
2022/03/14 06:21:10;;;;;;;;;;;21.70;33.70;;;;;;5036540;28;19928;-61
2022/03/14 06:23:36;;;;;;;;;;;21.80;33.80;;;;;;5051664;28;19913;-61
2022/03/14 06:26:02;;;;;;;;;;;21.80;34.40;;;;;;5039286;28;20246;-61
2022/03/14 06:28:27;;;;;;;;;;;21.80;33.80;;;;;;5054528;28;19920;-61
2022/03/14 06:30:54;;;;;;;;;;;21.80;33.80;;;;;;5055509;28;19920;-62
2022/03/14 06:33:21;;;;;;;;;;;21.80;33.80;;;;;;5046392;28;20312;-60
2022/03/14 06:35:47;;;;;;;;;;;21.80;33.80;;;;;;5043173;28;20316;-61
2022/03/14 06:38:12;;;;;;;;;;;21.80;33.80;;;;;;5054380;28;20062;-61
2022/03/14 06:40:39;;;;;;;;;;;21.80;33.80;;;;;;5046881;28;19944;-61
2022/03/14 06:43:05;;;;;;;;;;;21.80;33.80;;;;;;5036294;28;19909;-59
2022/03/14 06:45:32;;;;;;;;;;;21.80;33.80;;;;;;5052491;28;19909;-60
2022/03/14 06:47:58;;;;;;;;;;;21.80;33.80;;;;;;5051598;28;20328;-60
2022/03/14 06:50:24;;;;;;;;;;;21.80;33.80;;;;;;5040924;28;19917;-59
2022/03/14 06:52:50;;;;;;;;;;;21.80;33.90;;;;;;5045196;28;19912;-60
2022/03/14 06:55:16;;;;;;;;;;;21.80;33.90;;;;;;5047082;28;19917;-61
2022/03/14 06:57:41;;;;;;;;;;;21.80;33.90;;;;;;5045045;28;19908;-62
2022/03/14 07:00:07;;;;;;;;;;;21.80;33.90;;;;;;5052387;28;19909;-62
2022/03/14 07:02:35;;;;;;;;;;;21.80;33.90;;;;;;5053694;28;20331;-63
2022/03/14 07:05:01;;;;;;;;;;;21.80;33.90;;;;;;5055713;28;19908;-61
2022/03/14 07:07:27;;;;;;;;;;;21.80;33.90;;;;;;5058550;28;19909;-61
2022/03/14 07:09:54;;;;;;;;;;;21.90;34.00;;;;;;5042486;28;19928;-62
2022/03/14 07:12:20;;;;;;;;;;;21.80;33.90;;;;;;5059227;28;19923;-60
2022/03/14 07:14:46;;;;;;;;;;;21.80;33.90;;;;;;5055823;28;19981;-61
2022/03/14 07:17:11;;;;;;;;;;;21.80;34.00;;;;;;5055775;28;19999;-61
2022/03/14 07:19:42;;;;;;;;;;;21.80;34.00;;;;;;5052375;28;19909;-59
2022/03/14 07:22:17;;;;;;;;;;;21.80;34.00;;;;;;5039649;28;19947;-59
2022/03/14 07:24:44;;;;;;;;;;;21.80;34.00;;;;;;5057926;28;19909;-62
2022/03/14 07:27:13;;;;;;;;;;;21.80;34.00;;;;;;5057892;28;19916;-60
2022/03/14 07:29:39;;;;;;;;;;;21.80;34.00;;;;;;5058376;28;20323;-61
2022/03/14 07:32:05;;;;;;;;;;;21.80;33.90;;;;;;5057597;28;19905;-59
2022/03/14 07:34:31;;;;;;;;;;;21.80;34.00;;;;;;5054936;28;20314;-61
2022/03/14 07:36:57;;;;;;;;;;;21.80;33.90;;;;;;5053414;28;19959;-60
2022/03/14 07:39:23;;;;;;;;;;;21.90;34.00;;;;;;5053983;28;20847;-59
2022/03/14 07:41:48;;;;;;;;;;;21.90;34.00;;;;;;5055967;28;19982;-59
2022/03/14 07:44:14;;;;;;;;;;;21.90;33.90;;;;;;5052959;28;19909;-59
2022/03/14 07:46:40;;;;;;;;;;;22.00;33.90;;;;;;5051695;28;19920;-58
2022/03/14 07:49:05;;;;;;;;;;;22.00;33.80;;;;;;5033927;28;19913;-61
2022/03/14 07:51:32;;;;;;;;;;;22.10;33.80;;;;;;5037740;28;19919;-62
2022/03/14 07:53:58;;;;;;;;;;;22.10;34.40;;;;;;5053796;28;20000;-59
2022/03/14 07:56:23;;;;;;;;;;;22.10;33.80;;;;;;5049752;28;20399;-59
2022/03/14 07:58:49;;;;;;;;;;;22.20;33.70;;;;;;5046897;28;19920;-58
2022/03/14 08:01:19;;;;;;;;;;;22.20;33.60;;;;;;5049994;28;20213;-59
2022/03/14 08:03:46;;;;;;;;;;;22.30;33.70;;;;;;5048965;28;19975;-59
2022/03/14 08:06:17;;;;;;;;;;;22.30;33.70;;;;;;5043253;28;19909;-58
2022/03/14 08:08:43;;;;;;;;;;;22.30;33.80;;;;;;5040936;28;19917;-60
2022/03/14 08:11:09;;;;;;;;;;;22.30;33.80;;;;;;5052516;28;19916;-62
2022/03/14 08:13:34;;;;;;;;;;;22.30;33.80;;;;;;5042612;28;19978;-58
2022/03/14 08:16:00;;;;;;;;;;;22.40;33.80;;;;;;5054534;28;20003;-61
2022/03/14 08:18:26;;;;;;;;;;;22.40;33.80;;;;;;5054783;28;20284;-61
2022/03/14 08:20:57;;;;;;;;;;;22.40;33.80;;;;;;5038345;28;19909;-61
2022/03/14 08:23:22;;;;;;;;;;;22.40;33.90;;;;;;5037528;28;19920;-58
2022/03/14 08:25:48;;;;;;;;;;;22.40;33.90;;;;;;5053990;28;19909;-59
2022/03/14 08:28:14;;;;;;;;;;;22.40;34.00;;;;;;5050372;28;19908;-61
2022/03/14 08:30:40;;;;;;;;;;;22.40;34.00;;;;;;5055340;28;19927;-61
2022/03/14 08:33:06;;;;;;;;;;;22.40;34.10;;;;;;5051884;28;20225;-60
2022/03/14 08:35:32;;;;;;;;;;;22.40;34.10;;;;;;5042716;28;19916;-60
2022/03/14 08:37:58;;;;;;;;;;;22.40;34.10;;;;;;5053445;28;19931;-60
2022/03/14 08:40:24;;;;;;;;;;;22.40;34.20;;;;;;5041125;28;19909;-61
2022/03/14 08:42:51;;;;;;;;;;;22.40;34.30;;;;;;5056813;28;19939;-60
2022/03/14 08:45:17;;;;;;;;;;;22.40;34.20;;;;;;5056957;28;20229;-60
2022/03/14 08:47:43;;;;;;;;;;;22.40;34.30;;;;;;5051249;28;19909;-60
2022/03/14 08:50:14;;;;;;;;;;;22.40;34.30;;;;;;5051581;28;20384;-61
2022/03/14 08:52:41;;;;;;;;;;;22.40;34.30;;;;;;5050439;28;19909;-58
2022/03/14 08:55:07;;;;;;;;;;;22.30;34.30;;;;;;5049386;28;19949;-59
2022/03/14 08:57:33;;;;;;;;;;;22.30;34.40;;;;;;5053363;28;19925;-58
2022/03/14 08:59:59;;;;;;;;;;;22.30;34.30;;;;;;5047436;28;19970;-56
2022/03/14 09:02:26;;;;;;;;;;;22.30;34.30;;;;;;5036836;28;19920;-57
2022/03/14 09:04:52;;;;;;;;;;;22.30;34.30;;;;;;5048459;28;19995;-59
2022/03/14 09:07:28;;;;;;;;;;;22.30;34.40;;;;;;5056987;28;20006;-58
2022/03/14 09:09:53;;;;;;;;;;;22.30;34.40;;;;;;5056301;28;19927;-59
2022/03/14 09:12:20;;;;;;;;;;;22.30;34.50;;;;;;5052204;28;20015;-58
2022/03/14 09:14:46;;;;;;;;;;;22.20;34.50;;;;;;5051973;28;19935;-60
2022/03/14 09:17:12;;;;;;;;;;;22.20;34.50;;;;;;5051678;28;20216;-59
2022/03/14 09:19:38;;;;;;;;;;;22.20;34.60;;;;;;5044940;28;19909;-59
2022/03/14 09:22:10;;;;;;;;;;;22.20;34.60;;;;;;5037979;28;20312;-59
2022/03/14 09:24:36;;;;;;;;;;;22.10;34.60;;;;;;5048521;28;20003;-60
2022/03/14 09:27:05;;;;;;;;;;;22.10;34.60;;;;;;5056309;28;19908;-52
2022/03/14 09:29:31;;;;;;;;;;;22.10;34.50;;;;;;5043782;28;20324;-63
2022/03/14 09:31:57;;;;;;;;;;;22.10;34.30;;;;;;5047458;28;19919;-62
2022/03/14 09:34:23;;;;;;;;;;;22.10;34.30;;;;;;5040041;28;19924;-64
2022/03/14 09:36:49;;;;;;;;;;;22.00;34.30;;;;;;5055585;28;19912;-63
2022/03/14 09:39:15;;;;;;;;;;;22.00;34.40;;;;;;5050769;28;19909;-62
2022/03/14 09:41:41;;;;;;;;;;;22.00;34.40;;;;;;5053162;28;19909;-61
2022/03/14 09:44:14;;;;;;;;;;;22.00;34.50;;;;;;5053109;28;19908;-64
2022/03/14 09:46:45;;;;;;;;;;;22.10;34.50;;;;;;5046400;28;19915;-63
2022/03/14 09:49:13;;;;;;;;;;;22.10;34.40;;;;;;5047820;28;19925;-63
2022/03/14 09:51:39;;;;;;;;;;;22.10;34.40;;;;;;5038031;28;20231;-62
2022/03/14 09:54:09;;;;;;;;;;;22.20;34.30;;;;;;5053367;28;19917;-61
2022/03/14 09:56:36;;;;;;;;;;;22.30;34.30;;;;;;5052018;28;19995;-64
2022/03/14 09:59:03;;;;;;;;;;;22.30;34.30;;;;;;5035528;28;19908;-63
2022/03/14 10:01:29;;;;;;;;;;;22.30;34.20;;;;;;5050428;28;19913;-65
2022/03/14 10:03:55;;;;;;;;;;;22.30;34.10;;;;;;5055183;28;19909;-61
2022/03/14 10:06:20;;;;;;;;;;;22.40;34.20;;;;;;5054387;28;19920;-66
2022/03/14 10:08:46;;;;;;;;;;;22.40;34.10;;;;;;5049966;28;19924;-65
2022/03/14 10:11:12;;;;;;;;;;;22.40;34.10;;;;;;5050973;28;19916;-64
2022/03/14 10:13:39;;;;;;;;;;;22.50;34.10;;;;;;5056041;28;19962;-64
2022/03/14 10:16:05;;;;;;;;;;;22.50;34.10;;;;;;5053404;28;19917;-64
2022/03/14 10:18:50;;;;;;;;;;;22.50;34.10;;;;;;5044090;28;19931;-66
2022/03/14 10:21:27;;;;;;;;;;;22.60;34.10;;;;;;5051132;28;19933;-63
2022/03/14 10:23:58;;;;;;;;;;;22.60;34.10;;;;;;5054561;28;19909;-62
2022/03/14 10:26:25;;;;;;;;;;;22.60;34.10;;;;;;5053566;28;20197;-63
2022/03/14 10:29:14;;;;;;;;;;;22.70;34.10;;;;;;5035152;28;19923;-65
2022/03/14 10:31:56;;;;;;;;;;;22.70;34.10;;;;;;5036394;28;20019;-64
2022/03/14 10:34:27;;;;;;;;;;;22.70;34.10;;;;;;5036207;28;19916;-64
2022/03/14 10:36:57;;;;;;;;;;;22.80;34.10;;;;;;5036640;28;20427;-65
2022/03/14 10:39:28;;;;;;;;;;;22.80;34.10;;;;;;5046650;28;19920;-64
2022/03/14 10:42:02;;;;;;;;;;;22.80;34.00;;;;;;5055423;28;19916;-63
2022/03/14 10:44:32;;;;;;;;;;;22.80;34.00;;;;;;5041061;28;20305;-63
2022/03/14 10:47:03;;;;;;;;;;;22.90;34.00;;;;;;5035122;28;20316;-64
2022/03/14 10:49:32;;;;;;;;;;;22.90;34.00;;;;;;5037270;28;19909;-65
2022/03/14 10:52:01;;;;;;;;;;;22.90;33.90;;;;;;5035369;28;20004;-63
2022/03/14 10:54:34;;;;;;;;;;;22.90;33.90;;;;;;5046801;28;19913;-64
2022/03/14 10:57:05;;;;;;;;;;;22.90;33.80;;;;;;5035244;28;19913;-63
2022/03/14 10:59:57;;;;;;;;;;;22.90;33.80;;;;;;5035893;28;20274;-65
2022/03/14 11:02:25;;;;;;;;;;;22.90;33.80;;;;;;5034807;28;20107;-65
2022/03/14 11:04:53;;;;;;;;;;;22.90;33.80;;;;;;5053215;28;19908;-65
2022/03/14 11:07:25;;;;;;;;;;;22.90;33.80;;;;;;5036995;28;19909;-64
2022/03/14 11:09:53;;;;;;;;;;;22.90;33.70;;;;;;5035829;28;20351;-64
2022/03/14 11:12:25;;;;;;;;;;;22.80;33.70;;;;;;5034671;28;19913;-65
2022/03/14 11:14:59;;;;;;;;;;;22.90;33.70;;;;;;5035948;28;19913;-65
2022/03/14 11:17:36;;;;;;;;;;;22.90;33.70;;;;;;5034740;28;19913;-64
2022/03/14 11:20:07;;;;;;;;;;;22.90;33.70;;;;;;5054891;28;20333;-64
2022/03/14 11:22:34;;;;;;;;;;;22.90;33.70;;;;;;5053962;28;20014;-66
2022/03/14 11:25:01;;;;;;;;;;;22.80;33.60;;;;;;5042725;28;19912;-65
2022/03/14 11:27:34;;;;;;;;;;;22.80;33.60;;;;;;5035004;28;19920;-65
2022/03/14 11:30:02;;;;;;;;;;;22.80;33.60;;;;;;5054888;28;20252;-64
2022/03/14 11:32:29;;;;;;;;;;;22.80;33.60;;;;;;5050256;28;19917;-64
2022/03/14 11:34:57;;;;;;;;;;;22.80;33.60;;;;;;5037170;28;19928;-63
2022/03/14 11:37:24;;;;;;;;;;;22.80;33.50;;;;;;5053821;28;19917;-64
2022/03/14 11:39:51;;;;;;;;;;;22.80;33.60;;;;;;5044756;28;19948;-63
2022/03/14 11:42:17;;;;;;;;;;;22.80;33.60;;;;;;5034884;28;20279;-53
2022/03/14 11:44:45;;;;;;;;;;;22.80;33.50;;;;;;5046694;28;19987;-55
2022/03/14 11:47:12;;;;;;;;;;;22.80;33.50;;;;;;5054373;28;20205;-53
2022/03/14 11:49:38;;;;;;;;;;;22.80;33.50;;;;;;5036714;28;19909;-54
2022/03/14 11:52:07;;;;;;;;;;;22.80;33.50;;;;;;5052160;28;19974;-54
2022/03/14 11:54:37;;;;;;;;;;;22.90;33.60;;;;;;5043919;28;19963;-51
2022/03/14 11:57:03;;;;;;;;;;;22.80;33.50;;;;;;5056941;28;19913;-57
2022/03/14 11:59:30;;;;;;;;;;;22.90;33.50;;;;;;5051356;28;19909;-54
2022/03/14 12:01:58;;;;;;;;;;;22.90;33.50;;;;;;5057858;28;19920;-53
2022/03/14 12:04:30;;;;;;;;;;;22.90;33.50;;;;;;5048259;28;19935;-54
2022/03/14 12:06:57;;;;;;;;;;;22.90;33.50;;;;;;5043795;28;19912;-52
2022/03/14 12:09:25;;;;;;;;;;;22.90;33.60;;;;;;5052241;28;19916;-56
2022/03/14 12:11:55;;;;;;;;;;;22.90;33.60;;;;;;5057335;28;19920;-54
2022/03/14 12:14:33;;;;;;;;;;;22.90;33.60;;;;;;5044508;28;19908;-57
2022/03/14 12:17:06;;;;;;;;;;;22.90;33.60;;;;;;5037830;28;19920;-55
2022/03/14 12:19:38;;;;;;;;;;;22.90;33.60;;;;;;5032135;28;19909;-56
2022/03/14 12:22:05;;;;;;;;;;;22.90;33.70;;;;;;5057419;28;19909;-56
2022/03/14 12:24:33;;;;;;;;;;;22.90;33.70;;;;;;5049971;28;19931;-58
2022/03/14 12:27:00;;;;;;;;;;;22.90;33.70;;;;;;5038369;28;19908;-56
2022/03/14 12:29:40;;;;;;;;;;;22.90;33.70;;;;;;5045433;28;19995;-53
2022/03/14 12:32:38;;;;;;;;;;;22.90;33.70;;;;;;5054200;28;19919;-55
2022/03/14 12:35:16;;;;;;;;;;;22.90;33.80;;;;;;5009854;28;20291;-55
2022/03/14 12:37:43;;;;;;;;;;;22.90;33.80;;;;;;5050966;28;19931;-56
2022/03/14 12:40:31;;;;;;;;;;;22.90;33.80;;;;;;5056687;28;19927;-58
2022/03/14 12:43:00;;;;;;;;;;;23.00;33.90;;;;;;5056556;28;20400;-54
2022/03/14 12:45:30;;;;;;;;;;;23.00;33.90;;;;;;5056772;28;19909;-56
2022/03/14 12:47:59;;;;;;;;;;;23.00;33.90;;;;;;5037821;28;19949;-57
2022/03/14 12:50:45;;;;;;;;;;;23.00;33.90;;;;;;5056747;28;20226;-54
2022/03/14 12:53:20;;;;;;;;;;;23.00;33.90;;;;;;5052817;28;19920;-57
2022/03/14 12:55:47;;;;;;;;;;;23.00;33.90;;;;;;5052922;28;19964;-55
2022/03/14 12:58:17;;;;;;;;;;;23.00;33.90;;;;;;5027958;28;19909;-59
2022/03/14 13:00:43;;;;;;;;;;;23.00;33.90;;;;;;5040412;28;19919;-53
2022/03/14 13:03:10;;;;;;;;;;;23.00;33.90;;;;;;5047916;28;19909;-59
2022/03/14 13:05:42;;;;;;;;;;;23.10;34.00;;;;;;5049905;28;19928;-58
2022/03/14 13:08:11;;;;;;;;;;;23.10;34.00;;;;;;5042633;28;19913;-55
2022/03/14 13:10:40;;;;;;;;;;;23.10;34.00;;;;;;5047339;28;20273;-57
2022/03/14 13:13:10;;;;;;;;;;;23.10;34.00;;;;;;5050431;28;19919;-56
2022/03/14 13:15:37;;;;;;;;;;;23.10;34.00;;;;;;5040186;28;19931;-53
2022/03/14 13:18:19;;;;;;;;;;;23.10;33.90;;;;;;5038820;28;20373;-58
2022/03/14 13:20:46;;;;;;;;;;;23.20;34.00;;;;;;5051504;28;19912;-52
2022/03/14 13:23:15;;;;;;;;;;;23.20;34.00;;;;;;5053985;28;19920;-52
2022/03/14 13:25:48;;;;;;;;;;;23.20;34.00;;;;;;5056419;28;19975;-58
2022/03/14 13:28:27;;;;;;;;;;;23.20;34.00;;;;;;5042667;28;19909;-53
2022/03/14 13:30:54;;;;;;;;;;;23.20;33.90;;;;;;5038729;28;19924;-51
2022/03/14 13:33:24;;;;;;;;;;;23.30;34.00;;;;;;5053710;28;20235;-55
2022/03/14 13:35:50;;;;;;;;;;;23.30;33.90;;;;;;5024348;28;19981;-52
2022/03/14 13:38:31;;;;;;;;;;;23.30;33.90;;;;;;5054518;28;19909;-50
2022/03/14 13:40:57;;;;;;;;;;;23.30;33.80;;;;;;5039850;28;20220;-56
2022/03/14 13:43:23;;;;;;;;;;;23.40;33.90;;;;;;5038768;28;19936;-57
2022/03/14 13:45:53;;;;;;;;;;;23.40;33.80;;;;;;5030626;28;20382;-53
2022/03/14 13:48:22;;;;;;;;;;;23.40;33.80;;;;;;5041175;28;20299;-52
2022/03/14 13:50:49;;;;;;;;;;;23.40;33.70;;;;;;5052015;28;19952;-55
2022/03/14 13:53:24;;;;;;;;;;;23.40;33.70;;;;;;5046257;28;19909;-58
2022/03/14 13:55:51;;;;;;;;;;;23.40;33.70;;;;;;5046363;28;20360;-54
2022/03/14 13:58:22;;;;;;;;;;;23.40;33.60;;;;;;5045082;28;19913;-54
2022/03/14 14:00:52;;;;;;;;;;;23.40;33.60;;;;;;5046254;28;19916;-55
2022/03/14 14:03:24;;;;;;;;;;;23.40;33.60;;;;;;5044029;28;19908;-55
2022/03/14 14:05:51;;;;;;;;;;;23.50;33.60;;;;;;5047782;28;19935;-59
2022/03/14 14:08:34;;;;;;;;;;;23.40;33.50;;;;;;5047693;28;19913;-51
2022/03/14 14:11:03;;;;;;;;;;;23.40;33.40;;;;;;5053684;28;19949;-59
2022/03/14 14:13:48;;;;;;;;;;;23.50;33.50;;;;;;5032189;28;19924;-59
2022/03/14 14:16:17;;;;;;;;;;;23.50;33.50;;;;;;5046172;28;19983;-58
2022/03/14 14:18:43;;;;;;;;;;;23.50;33.50;;;;;;5035001;28;19952;-58